createdAt,value
2017-01-06T00:00:23.001Z,967.41
2017-01-06T00:01:23.496Z,967.37
2017-01-06T00:02:23.094Z,967.39
2017-01-06T00:03:23.029Z,967.41
2017-01-06T00:04:23.183Z,967.4
2017-01-06T00:05:23.049Z,967.41
2017-01-06T00:06:23.175Z,967.37
2017-01-06T00:07:23.063Z,967.41
2017-01-06T00:08:23.074Z,967.44
2017-01-06T00:09:23.081Z,967.47
2017-01-06T00:10:23.091Z,967.49
2017-01-06T00:11:23.100Z,967.53
2017-01-06T00:12:23.110Z,967.5
2017-01-06T00:13:23.125Z,967.52
2017-01-06T00:14:23.127Z,967.57
2017-01-06T00:15:23.136Z,967.6
2017-01-06T00:16:23.149Z,967.58
2017-01-06T00:17:23.154Z,967.57
2017-01-06T00:18:23.164Z,967.59
2017-01-06T00:19:23.173Z,967.59
2017-01-06T00:20:23.185Z,967.6
2017-01-06T00:21:23.191Z,967.58
2017-01-06T00:22:23.199Z,967.63
2017-01-06T00:23:23.208Z,967.64
2017-01-06T00:24:23.216Z,967.66
2017-01-06T00:25:23.228Z,967.64
2017-01-06T00:26:23.236Z,967.66
2017-01-06T00:27:23.244Z,967.6
2017-01-06T00:28:23.253Z,967.61
2017-01-06T00:29:23.262Z,967.6
2017-01-06T00:30:23.272Z,967.56
2017-01-06T00:31:23.279Z,967.62
2017-01-06T00:32:23.289Z,967.6
2017-01-06T00:33:23.298Z,967.61
2017-01-06T00:34:23.307Z,967.58
2017-01-06T00:35:23.315Z,967.6
2017-01-06T00:36:23.324Z,967.58
2017-01-06T00:37:23.333Z,967.6
2017-01-06T00:38:23.342Z,967.58
2017-01-06T00:39:23.351Z,967.66
2017-01-06T00:40:23.361Z,967.65
2017-01-06T00:41:23.370Z,967.65
2017-01-06T00:42:23.377Z,967.59
2017-01-06T00:43:23.386Z,967.6
2017-01-06T00:44:23.396Z,967.58
2017-01-06T00:45:23.403Z,967.59
2017-01-06T00:46:23.412Z,967.61
2017-01-06T00:47:23.472Z,967.64
2017-01-06T00:48:23.433Z,967.62
2017-01-06T00:49:23.439Z,967.66
2017-01-06T00:50:23.448Z,967.68
2017-01-06T00:51:23.458Z,967.68
2017-01-06T00:52:23.466Z,967.77
2017-01-06T00:53:23.474Z,967.78
2017-01-06T00:54:23.484Z,967.79
2017-01-06T00:55:23.498Z,967.8
2017-01-06T00:56:23.501Z,967.81
2017-01-06T00:57:23.510Z,967.84
2017-01-06T00:58:23.519Z,967.84
2017-01-06T00:59:23.528Z,967.89
2017-01-06T01:00:23.537Z,967.83
2017-01-06T01:01:23.545Z,967.87
2017-01-06T01:02:23.564Z,967.85
2017-01-06T01:03:23.563Z,967.9
2017-01-06T01:04:23.572Z,967.91
2017-01-06T01:05:23.580Z,967.9
2017-01-06T01:06:23.590Z,967.98
2017-01-06T01:07:23.599Z,967.98
2017-01-06T01:08:23.608Z,968
2017-01-06T01:09:23.629Z,968.01
2017-01-06T01:10:23.626Z,968.01
2017-01-06T01:11:23.634Z,968.02
2017-01-06T01:12:23.643Z,968.02
2017-01-06T01:13:23.679Z,968
2017-01-06T01:14:23.684Z,968
2017-01-06T01:15:23.757Z,968.05
2017-01-06T01:16:23.695Z,968.04
2017-01-06T01:17:23.688Z,968.07
2017-01-06T01:18:23.695Z,968.08
2017-01-06T01:19:23.704Z,968.06
2017-01-06T01:20:23.713Z,968.11
2017-01-06T01:21:23.723Z,968.15
2017-01-06T01:22:23.731Z,968.13
2017-01-06T01:23:23.762Z,968.14
2017-01-06T01:24:23.750Z,968.15
2017-01-06T01:25:23.758Z,968.17
2017-01-06T01:26:23.765Z,968.18
2017-01-06T01:27:23.775Z,968.23
2017-01-06T01:28:23.783Z,968.23
2017-01-06T01:29:23.790Z,968.23
2017-01-06T01:30:23.800Z,968.23
2017-01-06T01:31:23.809Z,968.26
2017-01-06T01:32:23.817Z,968.25
2017-01-06T01:33:23.826Z,968.25
2017-01-06T01:34:23.834Z,968.31
2017-01-06T01:35:23.843Z,968.28
2017-01-06T01:36:23.853Z,968.32
2017-01-06T01:37:23.860Z,968.29
2017-01-06T01:38:23.868Z,968.34
2017-01-06T01:39:23.877Z,968.27
2017-01-06T01:40:23.885Z,968.32
2017-01-06T01:41:23.893Z,968.33
2017-01-06T01:42:23.904Z,968.35
2017-01-06T01:43:23.911Z,968.43
2017-01-06T01:44:23.919Z,968.39
2017-01-06T01:45:23.928Z,968.38
2017-01-06T01:46:23.937Z,968.39
2017-01-06T01:47:23.945Z,968.38
2017-01-06T01:48:23.952Z,968.42
2017-01-06T01:49:23.961Z,968.42
2017-01-06T01:50:23.970Z,968.42
2017-01-06T01:51:23.981Z,968.44
2017-01-06T01:52:23.986Z,968.41
2017-01-06T01:53:23.996Z,968.4
2017-01-06T01:54:24.003Z,968.4
2017-01-06T01:55:24.011Z,968.42
2017-01-06T01:56:24.021Z,968.45
2017-01-06T01:57:24.029Z,968.45
2017-01-06T01:58:24.038Z,968.44
2017-01-06T01:59:24.045Z,968.44
2017-01-06T02:00:24.053Z,968.44
2017-01-06T02:01:24.602Z,968.42
2017-01-06T02:02:43.795Z,968.4
2017-01-06T02:03:24.598Z,968.44
2017-01-06T02:04:24.607Z,968.35
2017-01-06T02:05:24.614Z,968.43
2017-01-06T02:06:24.623Z,968.41
2017-01-06T02:07:24.631Z,968.41
2017-01-06T02:08:24.640Z,968.38
2017-01-06T02:09:24.647Z,968.4
2017-01-06T02:10:24.656Z,968.41
2017-01-06T02:11:24.664Z,968.41
2017-01-06T02:12:24.674Z,968.39
2017-01-06T02:13:24.681Z,968.38
2017-01-06T02:14:24.689Z,968.45
2017-01-06T02:15:24.697Z,968.42
2017-01-06T02:16:24.705Z,968.46
2017-01-06T02:17:24.715Z,968.44
2017-01-06T02:18:24.724Z,968.46
2017-01-06T02:19:24.731Z,968.51
2017-01-06T02:20:24.738Z,968.47
2017-01-06T02:21:24.748Z,968.5
2017-01-06T02:22:24.758Z,968.5
2017-01-06T02:23:24.764Z,968.51
2017-01-06T02:24:24.771Z,968.53
2017-01-06T02:25:24.780Z,968.54
2017-01-06T02:26:24.789Z,968.54
2017-01-06T02:27:24.796Z,968.57
2017-01-06T02:28:24.805Z,968.59
2017-01-06T02:29:24.815Z,968.59
2017-01-06T02:30:24.822Z,968.57
2017-01-06T02:31:24.829Z,968.57
2017-01-06T02:32:24.837Z,968.61
2017-01-06T02:33:25.125Z,968.62
2017-01-06T02:34:24.855Z,968.62
2017-01-06T02:35:24.865Z,968.64
2017-01-06T02:36:24.873Z,968.68
2017-01-06T02:37:24.880Z,968.69
2017-01-06T02:38:24.888Z,968.69
2017-01-06T02:39:24.896Z,968.69
2017-01-06T02:40:24.904Z,968.73
2017-01-06T02:41:25.002Z,968.71
2017-01-06T02:42:24.921Z,968.69
2017-01-06T02:43:24.934Z,968.66
2017-01-06T02:44:24.937Z,968.71
2017-01-06T02:45:24.946Z,968.65
2017-01-06T02:46:24.953Z,968.69
2017-01-06T02:47:24.961Z,968.68
2017-01-06T02:48:24.968Z,968.68
2017-01-06T02:49:24.976Z,968.65
2017-01-06T02:50:24.999Z,968.68
2017-01-06T02:51:24.995Z,968.67
2017-01-06T02:52:25.002Z,968.65
2017-01-06T02:53:25.010Z,968.65
2017-01-06T02:54:25.017Z,968.67
2017-01-06T02:55:25.026Z,968.71
2017-01-06T02:56:25.034Z,968.73
2017-01-06T02:57:25.062Z,968.71
2017-01-06T02:58:25.050Z,968.77
2017-01-06T02:59:25.060Z,968.76
2017-01-06T03:00:25.066Z,968.77
2017-01-06T03:01:25.074Z,968.77
2017-01-06T03:02:25.084Z,968.76
2017-01-06T03:03:25.091Z,968.8
2017-01-06T03:04:25.099Z,968.79
2017-01-06T03:05:25.106Z,968.81
2017-01-06T03:06:25.115Z,968.83
2017-01-06T03:07:25.122Z,968.78
2017-01-06T03:08:25.130Z,968.82
2017-01-06T03:09:25.138Z,968.8
2017-01-06T03:10:25.146Z,968.81
2017-01-06T03:11:25.153Z,968.8
2017-01-06T03:12:25.161Z,968.85
2017-01-06T03:13:25.169Z,968.9
2017-01-06T03:14:25.179Z,968.9
2017-01-06T03:15:25.184Z,968.93
2017-01-06T03:16:25.193Z,968.92
2017-01-06T03:17:25.201Z,968.9
2017-01-06T03:18:25.208Z,968.88
2017-01-06T03:19:25.217Z,968.87
2017-01-06T03:20:25.427Z,968.86
2017-01-06T03:21:25.233Z,968.86
2017-01-06T03:22:25.240Z,968.87
2017-01-06T03:23:25.248Z,968.91
2017-01-06T03:24:25.256Z,968.89
2017-01-06T03:25:25.264Z,968.93
2017-01-06T03:26:25.322Z,968.92
2017-01-06T03:27:25.279Z,968.94
2017-01-06T03:28:25.288Z,968.92
2017-01-06T03:29:25.294Z,968.95
2017-01-06T03:30:25.303Z,968.94
2017-01-06T03:31:25.311Z,968.95
2017-01-06T03:32:25.318Z,968.96
2017-01-06T03:33:25.326Z,968.98
2017-01-06T03:34:25.333Z,968.95
2017-01-06T03:35:25.341Z,968.98
2017-01-06T03:36:25.348Z,969.01
2017-01-06T03:37:25.370Z,969
2017-01-06T03:38:25.364Z,969.06
2017-01-06T03:39:25.372Z,969.12
2017-01-06T03:40:25.379Z,969.03
2017-01-06T03:41:25.386Z,969.08
2017-01-06T03:42:25.395Z,969.02
2017-01-06T03:43:25.402Z,969.03
2017-01-06T03:44:25.410Z,969.08
2017-01-06T03:45:25.425Z,969.03
2017-01-06T03:46:25.425Z,969.07
2017-01-06T03:47:25.432Z,969.07
2017-01-06T03:48:25.440Z,969.05
2017-01-06T03:49:25.447Z,969.03
2017-01-06T03:50:25.456Z,969.03
2017-01-06T03:51:25.464Z,969.02
2017-01-06T03:52:25.492Z,969.08
2017-01-06T03:53:25.497Z,969.04
2017-01-06T03:54:25.486Z,969.09
2017-01-06T03:55:25.491Z,969.09
2017-01-06T03:56:25.499Z,969.11
2017-01-06T03:57:25.508Z,969.07
2017-01-06T03:58:25.517Z,969.03
2017-01-06T03:59:25.524Z,969.03
2017-01-06T04:00:25.530Z,969.06
2017-01-06T04:01:25.537Z,969.07
2017-01-06T04:02:25.544Z,969.02
2017-01-06T04:03:25.553Z,969.04
2017-01-06T04:04:25.562Z,969.06
2017-01-06T04:05:25.568Z,969.06
2017-01-06T04:06:25.575Z,969.03
2017-01-06T04:07:25.583Z,969.07
2017-01-06T04:08:25.591Z,969.05
2017-01-06T04:09:25.598Z,969.04
2017-01-06T04:10:25.605Z,969.08
2017-01-06T04:11:25.614Z,969.05
2017-01-06T04:12:25.789Z,969.04
2017-01-06T04:13:25.630Z,969.04
2017-01-06T04:14:25.636Z,969.05
2017-01-06T04:15:25.644Z,969.07
2017-01-06T04:16:25.652Z,969.08
2017-01-06T04:17:25.659Z,969.09
2017-01-06T04:18:25.668Z,969.15
2017-01-06T04:19:25.675Z,969.15
2017-01-06T04:20:25.699Z,969.11
2017-01-06T04:21:25.690Z,969.14
2017-01-06T04:22:25.695Z,969.09
2017-01-06T04:23:25.705Z,969.12
2017-01-06T04:24:25.711Z,969.12
2017-01-06T04:25:25.718Z,969.13
2017-01-06T04:26:25.727Z,969.12
2017-01-06T04:27:25.734Z,969.13
2017-01-06T04:28:25.740Z,969.11
2017-01-06T04:29:25.749Z,969.14
2017-01-06T04:30:25.757Z,969.17
2017-01-06T04:31:25.763Z,969.2
2017-01-06T04:32:25.770Z,969.21
2017-01-06T04:33:25.779Z,969.24
2017-01-06T04:34:25.787Z,969.26
2017-01-06T04:35:25.791Z,969.26
2017-01-06T04:36:25.800Z,969.3
2017-01-06T04:37:25.808Z,969.26
2017-01-06T04:38:25.828Z,969.34
2017-01-06T04:39:25.822Z,969.32
2017-01-06T04:40:25.831Z,969.3
2017-01-06T04:41:25.837Z,969.28
2017-01-06T04:42:25.843Z,969.27
2017-01-06T04:43:25.852Z,969.26
2017-01-06T04:44:25.858Z,969.3
2017-01-06T04:45:25.866Z,969.29
2017-01-06T04:46:25.872Z,969.29
2017-01-06T04:47:25.880Z,969.28
2017-01-06T04:48:25.888Z,969.3
2017-01-06T04:49:25.894Z,969.3
2017-01-06T04:50:25.902Z,969.32
2017-01-06T04:51:25.909Z,969.33
2017-01-06T04:52:25.917Z,969.39
2017-01-06T04:53:25.923Z,969.34
2017-01-06T04:54:25.932Z,969.34
2017-01-06T04:55:25.938Z,969.34
2017-01-06T04:56:25.946Z,969.39
2017-01-06T04:57:25.953Z,969.34
2017-01-06T04:58:25.959Z,969.35
2017-01-06T04:59:25.968Z,969.3
2017-01-06T05:00:25.975Z,969.32
2017-01-06T05:01:25.994Z,969.35
2017-01-06T05:02:25.989Z,969.36
2017-01-06T05:03:25.998Z,969.39
2017-01-06T05:04:26.004Z,969.33
2017-01-06T05:05:26.012Z,969.36
2017-01-06T05:06:26.019Z,969.34
2017-01-06T05:07:26.028Z,969.4
2017-01-06T05:08:26.033Z,969.37
2017-01-06T05:09:26.040Z,969.44
2017-01-06T05:10:26.048Z,969.45
2017-01-06T05:11:26.055Z,969.43
2017-01-06T05:12:26.483Z,969.4
2017-01-06T05:13:26.068Z,969.44
2017-01-06T05:14:26.077Z,969.46
2017-01-06T05:15:26.083Z,969.51
2017-01-06T05:16:26.091Z,969.48
2017-01-06T05:17:26.099Z,969.5
2017-01-06T05:18:26.107Z,969.45
2017-01-06T05:19:26.112Z,969.51
2017-01-06T05:20:26.119Z,969.53
2017-01-06T05:21:26.127Z,969.56
2017-01-06T05:22:26.135Z,969.58
2017-01-06T05:23:26.140Z,969.64
2017-01-06T05:24:26.148Z,969.65
2017-01-06T05:25:26.155Z,969.66
2017-01-06T05:26:26.162Z,969.64
2017-01-06T05:27:26.169Z,969.65
2017-01-06T05:28:26.176Z,969.65
2017-01-06T05:29:26.195Z,969.67
2017-01-06T05:30:26.190Z,969.64
2017-01-06T05:31:26.198Z,969.65
2017-01-06T05:32:26.205Z,969.7
2017-01-06T05:33:26.214Z,969.69
2017-01-06T05:34:26.219Z,969.75
2017-01-06T05:35:26.225Z,969.7
2017-01-06T05:36:26.234Z,969.72
2017-01-06T05:37:26.239Z,969.75
2017-01-06T05:38:26.247Z,969.75
2017-01-06T05:39:26.254Z,969.81
2017-01-06T05:40:26.261Z,969.8
2017-01-06T05:41:26.268Z,969.8
2017-01-06T05:42:26.275Z,969.84
2017-01-06T05:43:26.283Z,969.83
2017-01-06T05:44:26.290Z,969.83
2017-01-06T05:45:26.301Z,969.8
2017-01-06T05:46:26.305Z,969.82
2017-01-06T05:47:26.312Z,969.84
2017-01-06T05:48:26.318Z,969.81
2017-01-06T05:49:26.325Z,969.83
2017-01-06T05:50:26.333Z,969.86
2017-01-06T05:51:26.340Z,969.85
2017-01-06T05:52:26.346Z,969.85
2017-01-06T05:53:26.354Z,969.84
2017-01-06T05:54:26.361Z,969.86
2017-01-06T05:55:26.368Z,969.87
2017-01-06T05:56:26.375Z,969.88
2017-01-06T05:57:26.383Z,969.9
2017-01-06T05:58:26.390Z,969.9
2017-01-06T05:59:26.396Z,969.89
2017-01-06T06:00:26.404Z,969.88
2017-01-06T06:01:26.411Z,969.9
2017-01-06T06:02:26.419Z,969.97
2017-01-06T06:03:26.430Z,969.97
2017-01-06T06:04:26.432Z,969.97
2017-01-06T06:05:26.441Z,969.97
2017-01-06T06:06:26.445Z,970
2017-01-06T06:07:26.454Z,970.03
2017-01-06T06:08:26.461Z,970.05
2017-01-06T06:09:26.469Z,970.06
2017-01-06T06:10:26.501Z,970.08
2017-01-06T06:11:26.482Z,970.11
2017-01-06T06:12:26.489Z,970.09
2017-01-06T06:13:26.496Z,970.12
2017-01-06T06:14:26.503Z,970.14
2017-01-06T06:15:26.510Z,970.19
2017-01-06T06:16:26.518Z,970.18
2017-01-06T06:17:26.524Z,970.2
2017-01-06T06:18:26.531Z,970.23
2017-01-06T06:19:26.537Z,970.24
2017-01-06T06:20:26.544Z,970.22
2017-01-06T06:21:26.551Z,970.27
2017-01-06T06:22:26.557Z,970.26
2017-01-06T06:23:26.564Z,970.28
2017-01-06T06:24:26.604Z,970.27
2017-01-06T06:25:26.578Z,970.29
2017-01-06T06:26:26.585Z,970.27
2017-01-06T06:27:26.591Z,970.34
2017-01-06T06:28:26.599Z,970.32
2017-01-06T06:29:26.607Z,970.33
2017-01-06T06:30:26.633Z,970.38
2017-01-06T06:31:26.631Z,970.34
2017-01-06T06:32:26.626Z,970.39
2017-01-06T06:33:26.634Z,970.39
2017-01-06T06:34:26.640Z,970.43
2017-01-06T06:35:26.649Z,970.4
2017-01-06T06:36:26.654Z,970.42
2017-01-06T06:37:26.661Z,970.46
2017-01-06T06:38:26.668Z,970.45
2017-01-06T06:39:26.673Z,970.48
2017-01-06T06:40:26.681Z,970.47
2017-01-06T06:41:26.689Z,970.46
2017-01-06T06:42:26.695Z,970.47
2017-01-06T06:43:26.702Z,970.54
2017-01-06T06:44:26.710Z,970.5
2017-01-06T06:45:26.716Z,970.53
2017-01-06T06:46:26.725Z,970.53
2017-01-06T06:47:26.730Z,970.62
2017-01-06T06:48:26.737Z,970.68
2017-01-06T06:49:26.743Z,970.67
2017-01-06T06:50:26.751Z,970.69
2017-01-06T06:51:26.781Z,970.69
2017-01-06T06:52:26.764Z,970.65
2017-01-06T06:53:26.772Z,970.7
2017-01-06T06:54:26.781Z,970.69
2017-01-06T06:55:26.786Z,970.67
2017-01-06T06:56:26.797Z,970.66
2017-01-06T06:57:26.801Z,970.68
2017-01-06T06:58:26.812Z,970.71
2017-01-06T06:59:26.813Z,970.73
2017-01-06T07:00:26.820Z,970.74
2017-01-06T07:01:26.828Z,970.74
2017-01-06T07:02:26.834Z,970.71
2017-01-06T07:03:26.841Z,970.68
2017-01-06T07:04:26.847Z,970.74
2017-01-06T07:05:26.862Z,970.72
2017-01-06T07:06:26.861Z,970.75
2017-01-06T07:07:26.869Z,970.75
2017-01-06T07:08:26.875Z,970.78
2017-01-06T07:09:26.881Z,970.81
2017-01-06T07:10:26.888Z,970.82
2017-01-06T07:11:26.896Z,970.83
2017-01-06T07:12:26.903Z,970.84
2017-01-06T07:13:26.910Z,970.85
2017-01-06T07:14:26.917Z,970.87
2017-01-06T07:15:26.924Z,970.89
2017-01-06T07:16:26.930Z,970.87
2017-01-06T07:17:26.937Z,970.88
2017-01-06T07:18:26.945Z,970.88
2017-01-06T07:19:26.952Z,970.87
2017-01-06T07:20:26.958Z,970.9
2017-01-06T07:21:26.966Z,970.89
2017-01-06T07:22:26.973Z,970.93
2017-01-06T07:23:26.981Z,970.96
2017-01-06T07:24:26.987Z,970.94
2017-01-06T07:25:26.994Z,970.95
2017-01-06T07:26:27.002Z,970.97
2017-01-06T07:27:27.008Z,970.99
2017-01-06T07:28:27.015Z,971.01
2017-01-06T07:29:27.022Z,970.97
2017-01-06T07:30:27.029Z,970.98
2017-01-06T07:31:27.036Z,971.04
2017-01-06T07:32:27.044Z,971.08
2017-01-06T07:33:27.061Z,971.1
2017-01-06T07:34:27.058Z,971.07
2017-01-06T07:35:27.065Z,971.06
2017-01-06T07:36:27.072Z,971.12
2017-01-06T07:37:27.081Z,971.12
2017-01-06T07:38:27.085Z,971.11
2017-01-06T07:39:27.093Z,971.15
2017-01-06T07:40:27.101Z,971.15
2017-01-06T07:41:27.107Z,971.17
2017-01-06T07:42:27.115Z,971.16
2017-01-06T07:43:27.123Z,971.22
2017-01-06T07:44:27.129Z,971.25
2017-01-06T07:45:27.137Z,971.22
2017-01-06T07:46:27.143Z,971.24
2017-01-06T07:47:27.151Z,971.29
2017-01-06T07:48:27.160Z,971.25
2017-01-06T07:49:27.166Z,971.32
2017-01-06T07:50:27.172Z,971.29
2017-01-06T07:51:27.180Z,971.31
2017-01-06T07:52:27.187Z,971.3
2017-01-06T07:53:27.200Z,971.34
2017-01-06T07:54:27.201Z,971.34
2017-01-06T07:55:27.209Z,971.35
2017-01-06T07:56:27.216Z,971.34
2017-01-06T07:57:27.223Z,971.39
2017-01-06T07:58:27.231Z,971.33
2017-01-06T07:59:27.238Z,971.38
2017-01-06T08:00:27.245Z,971.36
2017-01-06T08:01:27.253Z,971.38
2017-01-06T08:02:27.262Z,971.41
2017-01-06T08:03:27.267Z,971.43
2017-01-06T08:04:27.276Z,971.45
2017-01-06T08:05:27.284Z,971.44
2017-01-06T08:06:27.290Z,971.45
2017-01-06T08:07:27.298Z,971.41
2017-01-06T08:08:27.305Z,971.43
2017-01-06T08:09:27.314Z,971.48
2017-01-06T08:10:27.321Z,971.45
2017-01-06T08:11:27.328Z,971.49
2017-01-06T08:12:27.336Z,971.53
2017-01-06T08:13:27.343Z,971.52
2017-01-06T08:14:27.360Z,971.55
2017-01-06T08:15:27.357Z,971.57
2017-01-06T08:16:27.365Z,971.52
2017-01-06T08:17:27.374Z,971.52
2017-01-06T08:18:27.380Z,971.49
2017-01-06T08:19:27.388Z,971.54
2017-01-06T08:20:27.396Z,971.53
2017-01-06T08:21:27.425Z,971.58
2017-01-06T08:22:27.411Z,971.54
2017-01-06T08:23:27.420Z,971.54
2017-01-06T08:24:27.425Z,971.5
2017-01-06T08:25:27.432Z,971.55
2017-01-06T08:26:27.442Z,971.6
2017-01-06T08:27:27.448Z,971.57
2017-01-06T08:28:27.456Z,971.59
2017-01-06T08:29:27.464Z,971.59
2017-01-06T08:30:27.470Z,971.59
2017-01-06T08:31:27.478Z,971.62
2017-01-06T08:32:27.486Z,971.6
2017-01-06T08:33:27.493Z,971.65
2017-01-06T08:34:27.500Z,971.66
2017-01-06T08:35:27.512Z,971.64
2017-01-06T08:36:27.515Z,971.65
2017-01-06T08:37:27.521Z,971.69
2017-01-06T08:38:27.530Z,971.74
2017-01-06T08:39:27.539Z,971.77
2017-01-06T08:40:27.545Z,971.77
2017-01-06T08:41:27.556Z,971.74
2017-01-06T08:42:27.562Z,971.76
2017-01-06T08:43:27.569Z,971.78
2017-01-06T08:44:27.576Z,971.76
2017-01-06T08:45:27.583Z,971.78
2017-01-06T08:46:27.664Z,971.77
2017-01-06T08:47:27.599Z,971.81
2017-01-06T08:48:27.609Z,971.76
2017-01-06T08:49:27.627Z,971.79
2017-01-06T08:50:27.623Z,971.82
2017-01-06T08:51:27.630Z,971.81
2017-01-06T08:52:27.637Z,971.8
2017-01-06T08:53:27.645Z,971.8
2017-01-06T08:54:27.653Z,971.78
2017-01-06T08:55:27.661Z,971.79
2017-01-06T08:56:27.670Z,971.79
2017-01-06T08:57:27.678Z,971.8
2017-01-06T08:58:27.685Z,971.87
2017-01-06T08:59:27.693Z,971.85
2017-01-06T09:00:27.702Z,971.82
2017-01-06T09:01:27.710Z,971.87
2017-01-06T09:02:27.717Z,971.89
2017-01-06T09:03:27.725Z,971.92
2017-01-06T09:04:27.735Z,971.92
2017-01-06T09:05:27.741Z,971.89
2017-01-06T09:06:27.749Z,971.91
2017-01-06T09:07:27.757Z,971.9
2017-01-06T09:08:27.770Z,971.94
2017-01-06T09:09:27.773Z,971.91
2017-01-06T09:10:27.780Z,971.91
2017-01-06T09:11:27.789Z,971.89
2017-01-06T09:12:27.798Z,971.92
2017-01-06T09:13:27.805Z,971.93
2017-01-06T09:14:27.813Z,971.91
2017-01-06T09:15:27.821Z,971.95
2017-01-06T09:16:27.829Z,971.93
2017-01-06T09:17:27.837Z,971.96
2017-01-06T09:18:27.845Z,971.93
2017-01-06T09:19:27.854Z,971.93
2017-01-06T09:20:27.861Z,972
2017-01-06T09:21:27.870Z,971.97
2017-01-06T09:22:27.877Z,971.96
2017-01-06T09:23:27.887Z,971.97
2017-01-06T09:24:27.892Z,971.97
2017-01-06T09:25:27.901Z,971.97
2017-01-06T09:26:27.911Z,972.01
2017-01-06T09:27:27.918Z,971.99
2017-01-06T09:28:27.927Z,972.02
2017-01-06T09:29:27.936Z,972.01
2017-01-06T09:30:27.947Z,972.03
2017-01-06T09:31:27.952Z,972.07
2017-01-06T09:32:27.961Z,972.06
2017-01-06T09:33:27.971Z,972.1
2017-01-06T09:34:27.979Z,972.08
2017-01-06T09:35:27.987Z,972.08
2017-01-06T09:36:27.996Z,972.06
2017-01-06T09:37:28.007Z,972.03
2017-01-06T09:38:28.015Z,972.05
2017-01-06T09:39:28.025Z,972.09
2017-01-06T09:40:28.035Z,972.05
2017-01-06T09:41:28.045Z,972.09
2017-01-06T09:42:28.054Z,972.08
2017-01-06T09:43:28.064Z,972.05
2017-01-06T09:44:28.079Z,972.07
2017-01-06T09:45:28.086Z,972.1
2017-01-06T09:46:28.095Z,972.06
2017-01-06T09:47:28.107Z,972.08
2017-01-06T09:48:28.118Z,972.08
2017-01-06T09:49:28.127Z,972.06
2017-01-06T09:50:28.142Z,972.08
2017-01-06T09:51:28.153Z,972.07
2017-01-06T09:52:28.164Z,972.13
2017-01-06T09:53:28.175Z,972.09
2017-01-06T09:54:28.187Z,972.1
2017-01-06T09:55:28.200Z,972.11
2017-01-06T09:56:28.213Z,972.1
2017-01-06T09:57:28.225Z,972.13
2017-01-06T09:58:28.237Z,972.15
2017-01-06T09:59:28.251Z,972.13
2017-01-06T10:00:28.262Z,972.11
2017-01-06T10:01:28.275Z,972.13
2017-01-06T10:02:28.288Z,972.19
2017-01-06T10:03:28.300Z,972.21
2017-01-06T10:04:28.311Z,972.14
2017-01-06T10:05:28.327Z,972.17
2017-01-06T10:06:28.350Z,972.16
2017-01-06T10:07:28.351Z,972.09
2017-01-06T10:08:28.364Z,972.12
2017-01-06T10:09:28.376Z,972.1
2017-01-06T10:10:28.390Z,972.13
2017-01-06T10:11:28.402Z,972.09
2017-01-06T10:12:28.416Z,972.1
2017-01-06T10:13:28.430Z,972.08
2017-01-06T10:14:28.442Z,972.1
2017-01-06T10:15:28.453Z,972.11
2017-01-06T10:16:28.467Z,972.08
2017-01-06T10:17:28.479Z,972.08
2017-01-06T10:18:28.494Z,972.04
2017-01-06T10:19:28.506Z,972.02
2017-01-06T10:20:28.539Z,972.05
2017-01-06T10:21:28.532Z,972.02
2017-01-06T10:22:28.544Z,972.01
2017-01-06T10:23:28.557Z,972.03
2017-01-06T10:24:28.571Z,971.97
2017-01-06T10:25:28.585Z,971.95
2017-01-06T10:26:28.596Z,971.95
2017-01-06T10:27:28.608Z,971.94
2017-01-06T10:28:28.622Z,971.99
2017-01-06T10:29:28.650Z,971.9
2017-01-06T10:30:28.649Z,971.94
2017-01-06T10:31:28.663Z,971.93
2017-01-06T10:32:28.677Z,971.9
2017-01-06T10:33:28.690Z,971.89
2017-01-06T10:34:28.702Z,971.84
2017-01-06T10:35:28.716Z,971.85
2017-01-06T10:36:28.729Z,971.81
2017-01-06T10:37:28.741Z,971.78
2017-01-06T10:38:28.755Z,971.83
2017-01-06T10:39:28.769Z,971.79
2017-01-06T10:40:28.781Z,971.8
2017-01-06T10:41:28.795Z,971.78
2017-01-06T10:42:28.831Z,971.81
2017-01-06T10:43:28.822Z,971.8
2017-01-06T10:44:28.834Z,971.75
2017-01-06T10:45:28.848Z,971.73
2017-01-06T10:46:28.862Z,971.7
2017-01-06T10:47:28.875Z,971.7
2017-01-06T10:48:28.889Z,971.69
2017-01-06T10:49:28.903Z,971.67
2017-01-06T10:50:28.915Z,971.66
2017-01-06T10:51:28.927Z,971.65
2017-01-06T10:52:28.940Z,971.59
2017-01-06T10:53:28.954Z,971.63
2017-01-06T10:54:28.966Z,971.58
2017-01-06T10:55:28.978Z,971.63
2017-01-06T10:56:28.992Z,971.6
2017-01-06T10:57:29.004Z,971.61
2017-01-06T10:58:29.015Z,971.59
2017-01-06T10:59:29.028Z,971.6
2017-01-06T11:00:29.040Z,971.59
2017-01-06T11:01:29.054Z,971.56
2017-01-06T11:02:29.065Z,971.55
2017-01-06T11:03:29.086Z,971.54
2017-01-06T11:04:29.089Z,971.6
2017-01-06T11:05:29.102Z,971.55
2017-01-06T11:06:29.112Z,971.58
2017-01-06T11:07:29.225Z,971.57
2017-01-06T11:08:29.137Z,971.58
2017-01-06T11:09:29.149Z,971.58
2017-01-06T11:10:29.165Z,971.62
2017-01-06T11:11:29.171Z,971.6
2017-01-06T11:12:29.183Z,971.57
2017-01-06T11:13:29.194Z,971.6
2017-01-06T11:14:29.206Z,971.6
2017-01-06T11:15:29.218Z,971.58
2017-01-06T11:16:29.229Z,971.54
2017-01-06T11:17:29.240Z,971.56
2017-01-06T11:18:29.271Z,971.53
2017-01-06T11:19:29.263Z,971.51
2017-01-06T11:20:29.274Z,971.51
2017-01-06T11:21:29.285Z,971.45
2017-01-06T11:22:29.296Z,971.47
2017-01-06T11:23:29.307Z,971.42
2017-01-06T11:24:29.317Z,971.42
2017-01-06T11:25:29.328Z,971.36
2017-01-06T11:26:29.339Z,971.39
2017-01-06T11:27:29.350Z,971.41
2017-01-06T11:28:29.359Z,971.37
2017-01-06T11:29:29.369Z,971.36
2017-01-06T11:30:29.392Z,971.34
2017-01-06T11:31:29.392Z,971.36
2017-01-06T11:32:29.401Z,971.33
2017-01-06T11:33:29.411Z,971.29
2017-01-06T11:34:29.424Z,971.28
2017-01-06T11:35:29.432Z,971.23
2017-01-06T11:36:29.442Z,971.22
2017-01-06T11:37:29.453Z,971.22
2017-01-06T11:38:29.461Z,971.24
2017-01-06T11:39:29.472Z,971.18
2017-01-06T11:40:29.482Z,971.2
2017-01-06T11:41:29.491Z,971.15
2017-01-06T11:42:29.502Z,971.14
2017-01-06T11:43:29.509Z,971.14
2017-01-06T11:44:29.520Z,971.1
2017-01-06T11:45:29.532Z,971.14
2017-01-06T11:46:29.538Z,971.12
2017-01-06T11:47:29.547Z,971.08
2017-01-06T11:48:29.558Z,971.06
2017-01-06T11:49:29.567Z,971.05
2017-01-06T11:50:29.573Z,971.04
2017-01-06T11:51:29.584Z,971.01
2017-01-06T11:52:29.594Z,970.94
2017-01-06T11:53:29.605Z,970.97
2017-01-06T11:54:29.612Z,970.96
2017-01-06T11:55:29.621Z,970.92
2017-01-06T11:56:29.630Z,970.93
2017-01-06T11:57:29.638Z,970.92
2017-01-06T11:58:29.648Z,970.94
2017-01-06T11:59:29.657Z,970.89
2017-01-06T12:00:29.670Z,970.91
2017-01-06T12:01:29.675Z,970.91
2017-01-06T12:02:29.684Z,970.85
2017-01-06T12:03:29.694Z,970.86
2017-01-06T12:04:29.703Z,970.85
2017-01-06T12:05:29.712Z,970.87
2017-01-06T12:06:29.721Z,970.85
2017-01-06T12:07:29.732Z,970.86
2017-01-06T12:08:29.767Z,970.8
2017-01-06T12:09:29.748Z,970.79
2017-01-06T12:10:29.756Z,970.8
2017-01-06T12:11:29.767Z,970.83
2017-01-06T12:12:29.773Z,970.76
2017-01-06T12:13:29.783Z,970.79
2017-01-06T12:14:29.793Z,970.83
2017-01-06T12:15:29.801Z,970.77
2017-01-06T12:16:29.811Z,970.86
2017-01-06T12:17:29.818Z,970.81
2017-01-06T12:18:29.827Z,970.79
2017-01-06T12:19:29.834Z,970.79
2017-01-06T12:20:29.844Z,970.79
2017-01-06T12:21:29.853Z,970.73
2017-01-06T12:22:29.862Z,970.72
2017-01-06T12:23:29.871Z,970.72
2017-01-06T12:24:29.879Z,970.67
2017-01-06T12:25:29.890Z,970.75
2017-01-06T12:26:29.896Z,970.66
2017-01-06T12:27:29.905Z,970.64
2017-01-06T12:28:29.914Z,970.65
2017-01-06T12:29:29.924Z,970.62
2017-01-06T12:30:29.932Z,970.61
2017-01-06T12:31:29.941Z,970.58